Bill Street, United Kingdom
Current Conditions -  °F | °C
As of 6:20 PM on Monday 26 Jan 2015 (Local Time) from EGMC Reporting Station
Clear Clear  
Wind Chill: 37°   Ceiling: Unl
Heat Index: 43°   Visibility: 6mi
Dew Point: 34°   Wind: 10mph
Humidity: 70%   Direction: 300°WNW
Pressure: 30.27"   Gusts: NA
Location:  51.41°N, 0.54°E
Report Text: EGMC 261820Z 30009KT CAVOK 06/01 Q1025
Loading
Personal Weather Stations






























Interactive Weather Map New forecast layout! Learn more

10-Day Weather Forecast

Advertisements
Track Severe Weather on mobile